sensor_id;sensor_type;location;lat;lon;timestamp;pressure;altitude;pressure_sealevel;temperature;humidity
73651;BME280;61944;52.538;6.108;2022-09-27T00:01:31;99508.53;;;11.05;100.00
73651;BME280;61944;52.538;6.108;2022-09-27T00:03:56;99507.47;;;11.30;99.99
73651;BME280;61944;52.538;6.108;2022-09-27T00:06:28;99514.13;;;11.43;98.80
73651;BME280;61944;52.538;6.108;2022-09-27T00:08:55;99522.44;;;11.50;98.51
73651;BME280;61944;52.538;6.108;2022-09-27T00:11:29;99519.41;;;11.34;98.36
73651;BME280;61944;52.538;6.108;2022-09-27T00:13:57;99528.00;;;11.19;98.93
73651;BME280;61944;52.538;6.108;2022-09-27T00:16:25;99525.41;;;11.36;98.64
73651;BME280;61944;52.538;6.108;2022-09-27T00:18:51;99517.97;;;11.22;99.11
73651;BME280;61944;52.538;6.108;2022-09-27T00:21:17;99523.19;;;11.16;98.38
73651;BME280;61944;52.538;6.108;2022-09-27T00:23:43;99534.22;;;10.93;99.12
73651;BME280;61944;52.538;6.108;2022-09-27T00:26:10;99526.84;;;11.13;99.12
73651;BME280;61944;52.538;6.108;2022-09-27T00:28:36;99525.50;;;11.29;98.56
73651;BME280;61944;52.538;6.108;2022-09-27T00:31:02;99524.25;;;11.30;97.85
73651;BME280;61944;52.538;6.108;2022-09-27T00:33:27;99525.22;;;11.16;98.35
73651;BME280;61944;52.538;6.108;2022-09-27T00:35:53;99519.91;;;11.25;98.14
73651;BME280;61944;52.538;6.108;2022-09-27T00:38:19;99533.88;;;11.32;97.67
73651;BME280;61944;52.538;6.108;2022-09-27T00:40:44;99533.38;;;10.96;98.00
73651;BME280;61944;52.538;6.108;2022-09-27T00:43:19;99535.63;;;11.15;97.67
73651;BME280;61944;52.538;6.108;2022-09-27T00:45:56;99531.63;;;11.13;98.18
73651;BME280;61944;52.538;6.108;2022-09-27T00:48:25;99535.56;;;11.23;97.71
73651;BME280;61944;52.538;6.108;2022-09-27T00:50:53;99536.31;;;11.27;97.28
73651;BME280;61944;52.538;6.108;2022-09-27T00:53:28;99532.28;;;11.28;97.11
73651;BME280;61944;52.538;6.108;2022-09-27T00:56:00;99535.47;;;11.30;97.03
73651;BME280;61944;52.538;6.108;2022-09-27T00:58:36;99539.56;;;11.22;97.14
73651;BME280;61944;52.538;6.108;2022-09-27T01:01:06;99538.84;;;11.14;97.05
73651;BME280;61944;52.538;6.108;2022-09-27T01:04:00;99534.16;;;11.00;97.23
73651;BME280;61944;52.538;6.108;2022-09-27T01:06:27;99532.50;;;11.06;97.15
73651;BME280;61944;52.538;6.108;2022-09-27T01:08:53;99541.63;;;11.14;97.19
73651;BME280;61944;52.538;6.108;2022-09-27T01:22:21;99550.34;;;11.23;96.85
73651;BME280;61944;52.538;6.108;2022-09-27T01:25:01;99555.25;;;11.12;97.75
73651;BME280;61944;52.538;6.108;2022-09-27T01:30:20;99552.53;;;11.05;97.44
73651;BME280;61944;52.538;6.108;2022-09-27T01:36:10;99549.38;;;10.99;97.57
73651;BME280;61944;52.538;6.108;2022-09-27T01:41:22;99556.53;;;11.04;96.94
73651;BME280;61944;52.538;6.108;2022-09-27T01:46:54;99547.53;;;10.82;97.77
73651;BME280;61944;52.538;6.108;2022-09-27T01:49:47;99546.97;;;10.97;97.34
73651;BME280;61944;52.538;6.108;2022-09-27T01:52:19;99546.94;;;11.05;96.88
73651;BME280;61944;52.538;6.108;2022-09-27T01:54:50;99550.16;;;10.99;96.90
73651;BME280;61944;52.538;6.108;2022-09-27T01:57:23;99548.50;;;11.09;96.75
73651;BME280;61944;52.538;6.108;2022-09-27T01:59:58;99550.13;;;11.03;96.82
73651;BME280;61944;52.538;6.108;2022-09-27T02:02:27;99545.31;;;11.04;96.48
73651;BME280;61944;52.538;6.108;2022-09-27T02:04:56;99540.59;;;10.97;96.30
73651;BME280;61944;52.538;6.108;2022-09-27T02:07:29;99533.91;;;10.84;96.83
73651;BME280;61944;52.538;6.108;2022-09-27T02:10:11;99532.63;;;10.92;96.45
73651;BME280;61944;52.538;6.108;2022-09-27T02:12:48;99538.47;;;11.08;95.87
73651;BME280;61944;52.538;6.108;2022-09-27T02:15:16;99536.56;;;10.98;95.78
73651;BME280;61944;52.538;6.108;2022-09-27T02:20:17;99533.75;;;11.02;95.83
73651;BME280;61944;52.538;6.108;2022-09-27T02:22:49;99542.50;;;11.07;95.02
73651;BME280;61944;52.538;6.108;2022-09-27T02:25:33;99531.72;;;11.06;95.55
73651;BME280;61944;52.538;6.108;2022-09-27T02:30:51;99533.75;;;11.02;95.37
73651;BME280;61944;52.538;6.108;2022-09-27T02:33:19;99532.13;;;11.04;94.97
73651;BME280;61944;52.538;6.108;2022-09-27T02:35:46;99536.56;;;10.98;95.16
73651;BME280;61944;52.538;6.108;2022-09-27T02:38:12;99539.72;;;11.04;95.02
73651;BME280;61944;52.538;6.108;2022-09-27T02:40:45;99539.50;;;10.84;95.00
73651;BME280;61944;52.538;6.108;2022-09-27T02:43:13;99536.63;;;10.94;95.04
73651;BME280;61944;52.538;6.108;2022-09-27T02:51:09;99530.28;;;10.87;94.90
73651;BME280;61944;52.538;6.108;2022-09-27T03:01:41;99527.03;;;10.92;94.43
73651;BME280;61944;52.538;6.108;2022-09-27T03:06:34;99522.34;;;10.78;95.04
73651;BME280;61944;52.538;6.108;2022-09-27T03:09:02;99515.16;;;10.77;95.41
73651;BME280;61944;52.538;6.108;2022-09-27T03:11:27;99519.19;;;10.72;95.41
73651;BME280;61944;52.538;6.108;2022-09-27T03:13:53;99517.63;;;10.71;95.38
73651;BME280;61944;52.538;6.108;2022-09-27T03:16:18;99523.97;;;10.75;95.66
73651;BME280;61944;52.538;6.108;2022-09-27T03:18:44;99521.50;;;10.85;94.87
73651;BME280;61944;52.538;6.108;2022-09-27T03:21:09;99521.50;;;10.85;94.75
73651;BME280;61944;52.538;6.108;2022-09-27T03:23:34;99514.84;;;10.68;95.73
73651;BME280;61944;52.538;6.108;2022-09-27T03:26:00;99516.34;;;10.80;95.51
73651;BME280;61944;52.538;6.108;2022-09-27T03:28:25;99525.56;;;10.76;95.70
73651;BME280;61944;52.538;6.108;2022-09-27T03:30:54;99519.91;;;10.84;95.02
73651;BME280;61944;52.538;6.108;2022-09-27T03:33:19;99523.91;;;10.83;95.08
73651;BME280;61944;52.538;6.108;2022-09-27T03:35:44;99523.16;;;10.78;95.25
73651;BME280;61944;52.538;6.108;2022-09-27T03:38:10;99524.38;;;10.77;95.24
73651;BME280;61944;52.538;6.108;2022-09-27T03:40:35;99526.72;;;10.79;94.90
73651;BME280;61944;52.538;6.108;2022-09-27T03:43:01;99532.09;;;10.59;96.13
73651;BME280;61944;52.538;6.108;2022-09-27T03:45:26;99534.44;;;10.64;96.00
73651;BME280;61944;52.538;6.108;2022-09-27T03:47:52;99530.78;;;10.74;95.31
73651;BME280;61944;52.538;6.108;2022-09-27T03:50:17;99534.34;;;10.78;95.27
73651;BME280;61944;52.538;6.108;2022-09-27T03:52:43;99540.38;;;10.73;95.54
73651;BME280;61944;52.538;6.108;2022-09-27T03:55:09;99535.94;;;10.80;95.11
73651;BME280;61944;52.538;6.108;2022-09-27T03:57:35;99533.97;;;10.73;95.51
73651;BME280;61944;52.538;6.108;2022-09-27T04:00:00;99548.34;;;10.78;94.42
73651;BME280;61944;52.538;6.108;2022-09-27T04:02:26;99544.84;;;10.67;94.89
73651;BME280;61944;52.538;6.108;2022-09-27T04:04:52;99548.81;;;10.70;95.48
73651;BME280;61944;52.538;6.108;2022-09-27T04:07:17;99550.38;;;10.71;95.23
73651;BME280;61944;52.538;6.108;2022-09-27T04:09:43;99544.47;;;10.62;95.39
73651;BME280;61944;52.538;6.108;2022-09-27T04:12:11;99541.97;;;10.71;95.36
73651;BME280;61944;52.538;6.108;2022-09-27T04:14:36;99544.88;;;10.60;95.53
73651;BME280;61944;52.538;6.108;2022-09-27T04:17:02;99539.66;;;10.62;95.69
73651;BME280;61944;52.538;6.108;2022-09-27T04:19:27;99539.25;;;10.64;95.51
73651;BME280;61944;52.538;6.108;2022-09-27T04:21:52;99538.00;;;10.72;95.04
73651;BME280;61944;52.538;6.108;2022-09-27T04:24:18;99538.41;;;10.70;95.62
73651;BME280;61944;52.538;6.108;2022-09-27T04:26:43;99547.19;;;10.69;95.09
73651;BME280;61944;52.538;6.108;2022-09-27T04:29:09;99543.22;;;10.66;95.03
73651;BME280;61944;52.538;6.108;2022-09-27T04:31:35;99536.97;;;10.48;96.83
73651;BME280;61944;52.538;6.108;2022-09-27T04:34:03;99542.44;;;10.62;95.89
73651;BME280;61944;52.538;6.108;2022-09-27T04:36:29;99547.25;;;10.62;95.98
73651;BME280;61944;52.538;6.108;2022-09-27T04:38:57;99547.25;;;10.65;95.01
73651;BME280;61944;52.538;6.108;2022-09-27T04:41:24;99546.84;;;10.63;95.97
73651;BME280;61944;52.538;6.108;2022-09-27T04:43:54;99552.00;;;10.68;95.13
73651;BME280;61944;52.538;6.108;2022-09-27T04:46:19;99542.56;;;10.48;96.65
73651;BME280;61944;52.538;6.108;2022-09-27T04:48:46;99541.81;;;10.44;96.98
73651;BME280;61944;52.538;6.108;2022-09-27T04:51:12;99556.97;;;10.43;96.70
73651;BME280;61944;52.538;6.108;2022-09-27T04:53:38;99553.41;;;10.42;96.89
73651;BME280;61944;52.538;6.108;2022-09-27T04:56:05;99557.03;;;10.28;98.12
73651;BME280;61944;52.538;6.108;2022-09-27T04:58:31;99550.22;;;10.36;96.88
73651;BME280;61944;52.538;6.108;2022-09-27T05:01:00;99558.59;;;10.40;97.09
73651;BME280;61944;52.538;6.108;2022-09-27T05:03:28;99551.34;;;10.50;95.50
73651;BME280;61944;52.538;6.108;2022-09-27T05:05:54;99556.91;;;10.53;94.74
73651;BME280;61944;52.538;6.108;2022-09-27T05:08:19;99551.31;;;10.53;95.14
73651;BME280;61944;52.538;6.108;2022-09-27T05:10:45;99552.94;;;10.51;95.24
73651;BME280;61944;52.538;6.108;2022-09-27T05:13:11;99555.41;;;10.42;94.99
73651;BME280;61944;52.538;6.108;2022-09-27T05:15:37;99557.75;;;10.47;95.08
73651;BME280;61944;52.538;6.108;2022-09-27T05:18:04;99556.19;;;10.46;94.61
73651;BME280;61944;52.538;6.108;2022-09-27T05:20:29;99557.69;;;10.54;93.56
73651;BME280;61944;52.538;6.108;2022-09-27T05:22:54;99559.38;;;10.44;93.20
73651;BME280;61944;52.538;6.108;2022-09-27T05:25:20;99559.38;;;10.44;94.13
73651;BME280;61944;52.538;6.108;2022-09-27T05:27:45;99559.31;;;10.55;94.01
73651;BME280;61944;52.538;6.108;2022-09-27T05:30:11;99563.44;;;10.29;94.82
73651;BME280;61944;52.538;6.108;2022-09-27T05:32:39;99577.00;;;10.37;94.61
73651;BME280;61944;52.538;6.108;2022-09-27T05:35:08;99566.63;;;10.27;94.98
73651;BME280;61944;52.538;6.108;2022-09-27T05:37:33;99575.53;;;10.08;97.34
73651;BME280;61944;52.538;6.108;2022-09-27T05:39:58;99563.44;;;10.29;95.55
73651;BME280;61944;52.538;6.108;2022-09-27T05:42:24;99568.28;;;10.17;95.97
73651;BME280;61944;52.538;6.108;2022-09-27T05:44:49;99554.66;;;10.23;95.68
73651;BME280;61944;52.538;6.108;2022-09-27T05:47:14;99561.41;;;10.33;95.80
73651;BME280;61944;52.538;6.108;2022-09-27T05:49:40;99563.81;;;10.34;95.73
73651;BME280;61944;52.538;6.108;2022-09-27T05:52:05;99563.78;;;10.42;95.08
73651;BME280;61944;52.538;6.108;2022-09-27T05:54:31;99576.16;;;10.48;94.73
73651;BME280;61944;52.538;6.108;2022-09-27T05:56:57;99580.84;;;10.58;93.85
73651;BME280;61944;52.538;6.108;2022-09-27T05:59:24;99576.94;;;10.45;94.73
73651;BME280;61944;52.538;6.108;2022-09-27T06:01:50;99580.91;;;10.51;94.09
73651;BME280;61944;52.538;6.108;2022-09-27T06:04:16;99586.06;;;10.56;94.53
73651;BME280;61944;52.538;6.108;2022-09-27T06:06:41;99584.94;;;10.50;94.93
73651;BME280;61944;52.538;6.108;2022-09-27T06:09:09;99588.09;;;10.52;95.36
73651;BME280;61944;52.538;6.108;2022-09-27T06:11:35;99598.22;;;10.91;95.64
73651;BME280;61944;52.538;6.108;2022-09-27T06:14:00;99587.13;;;10.76;94.51
73651;BME280;61944;52.538;6.108;2022-09-27T06:16:25;99592.16;;;10.40;96.45
73651;BME280;61944;52.538;6.108;2022-09-27T06:18:51;99597.25;;;10.60;95.38
73651;BME280;61944;52.538;6.108;2022-09-27T06:21:16;99594.13;;;10.47;96.39
73651;BME280;61944;52.538;6.108;2022-09-27T06:23:41;99599.41;;;10.30;97.24
73651;BME280;61944;52.538;6.108;2022-09-27T06:26:07;99593.94;;;10.02;98.97
73651;BME280;61944;52.538;6.108;2022-09-27T06:28:32;99596.22;;;10.32;96.76
73651;BME280;61944;52.538;6.108;2022-09-27T06:31:01;99597.81;;;10.22;97.31
73651;BME280;61944;52.538;6.108;2022-09-27T06:33:27;99598.25;;;10.17;96.67
73651;BME280;61944;52.538;6.108;2022-09-27T06:35:52;99597.84;;;10.15;96.32
73651;BME280;61944;52.538;6.108;2022-09-27T06:38:18;99599.47;;;10.09;96.15
73651;BME280;61944;52.538;6.108;2022-09-27T06:40:45;99603.00;;;10.27;96.57
73651;BME280;61944;52.538;6.108;2022-09-27T06:43:13;99605.41;;;10.25;98.30
73651;BME280;61944;52.538;6.108;2022-09-27T06:45:40;99603.41;;;10.29;96.58
73651;BME280;61944;52.538;6.108;2022-09-27T06:48:08;99607.44;;;10.14;95.84
73651;BME280;61944;52.538;6.108;2022-09-27T06:50:36;99607.81;;;10.16;96.08
73651;BME280;61944;52.538;6.108;2022-09-27T06:53:02;99610.66;;;10.05;97.00
73651;BME280;61944;52.538;6.108;2022-09-27T06:55:27;99602.22;;;10.23;96.31
73651;BME280;61944;52.538;6.108;2022-09-27T06:57:56;99613.06;;;10.07;96.10
73651;BME280;61944;52.538;6.108;2022-09-27T07:00:41;99620.19;;;10.29;95.19
73651;BME280;61944;52.538;6.108;2022-09-27T07:03:08;99611.44;;;10.09;95.68
73651;BME280;61944;52.538;6.108;2022-09-27T07:05:33;99610.28;;;10.07;96.37
73651;BME280;61944;52.538;6.108;2022-09-27T07:07:59;99617.81;;;10.21;96.19
73651;BME280;61944;52.538;6.108;2022-09-27T07:10:29;99625.47;;;10.06;96.38
73651;BME280;61944;52.538;6.108;2022-09-27T07:13:02;99631.41;;;10.15;97.53
73651;BME280;61944;52.538;6.108;2022-09-27T07:15:27;99627.88;;;10.04;97.62
73651;BME280;61944;52.538;6.108;2022-09-27T07:17:57;99633.84;;;10.02;97.85
73651;BME280;61944;52.538;6.108;2022-09-27T07:20:23;99627.47;;;9.98;98.88
73651;BME280;61944;52.538;6.108;2022-09-27T07:22:48;99631.44;;;10.08;99.32
73651;BME280;61944;52.538;6.108;2022-09-27T07:25:14;99629.38;;;10.30;97.95
73651;BME280;61944;52.538;6.108;2022-09-27T07:27:39;99629.78;;;10.14;98.91
73651;BME280;61944;52.538;6.108;2022-09-27T07:30:07;99628.09;;;10.45;97.75
73651;BME280;61944;52.538;6.108;2022-09-27T07:32:32;99631.28;;;10.47;97.16
73651;BME280;61944;52.538;6.108;2022-09-27T07:35:00;99636.16;;;10.36;98.99
73651;BME280;61944;52.538;6.108;2022-09-27T07:37:25;99643.25;;;10.51;97.78
73651;BME280;61944;52.538;6.108;2022-09-27T07:39:51;99638.50;;;10.45;99.04
73651;BME280;61944;52.538;6.108;2022-09-27T07:42:16;99638.53;;;10.37;100.00
73651;BME280;61944;52.538;6.108;2022-09-27T07:44:42;99644.09;;;10.41;98.68
73651;BME280;61944;52.538;6.108;2022-09-27T07:47:07;99645.59;;;10.60;97.56
73651;BME280;61944;52.538;6.108;2022-09-27T07:49:33;99650.03;;;10.54;97.52
73651;BME280;61944;52.538;6.108;2022-09-27T07:51:58;99651.97;;;10.68;96.86
73651;BME280;61944;52.538;6.108;2022-09-27T07:54:24;99653.66;;;10.54;98.60
73651;BME280;61944;52.538;6.108;2022-09-27T07:56:49;99658.41;;;10.61;97.23
73651;BME280;61944;52.538;6.108;2022-09-27T07:59:14;99659.97;;;10.69;96.88
73651;BME280;61944;52.538;6.108;2022-09-27T08:01:40;99671.16;;;10.69;96.18
73651;BME280;61944;52.538;6.108;2022-09-27T08:04:05;99663.94;;;10.68;97.99
73651;BME280;61944;52.538;6.108;2022-09-27T08:06:30;99663.94;;;10.68;96.98
73651;BME280;61944;52.538;6.108;2022-09-27T08:08:56;99666.34;;;10.73;95.84
73651;BME280;61944;52.538;6.108;2022-09-27T08:11:23;99669.09;;;10.77;95.04
73651;BME280;61944;52.538;6.108;2022-09-27T08:13:49;99675.53;;;10.74;95.51
73651;BME280;61944;52.538;6.108;2022-09-27T08:16:16;99682.69;;;10.75;95.31
73651;BME280;61944;52.538;6.108;2022-09-27T08:18:42;99688.59;;;10.95;94.13
73651;BME280;61944;52.538;6.108;2022-09-27T08:21:07;99680.59;;;10.93;96.98
73651;BME280;61944;52.538;6.108;2022-09-27T08:23:33;99687.03;;;10.87;94.48
73651;BME280;61944;52.538;6.108;2022-09-27T08:25:58;99680.59;;;10.97;94.52
73651;BME280;61944;52.538;6.108;2022-09-27T08:28:27;99687.81;;;10.91;96.43
73651;BME280;61944;52.538;6.108;2022-09-27T08:30:55;99685.09;;;10.80;96.10
73651;BME280;61944;52.538;6.108;2022-09-27T08:33:21;99698.97;;;10.98;95.45
73651;BME280;61944;52.538;6.108;2022-09-27T08:35:46;99692.25;;;10.88;97.22
73651;BME280;61944;52.538;6.108;2022-09-27T08:38:12;99696.63;;;10.89;96.35
73651;BME280;61944;52.538;6.108;2022-09-27T08:40:53;99692.69;;;10.80;94.41
73651;BME280;61944;52.538;6.108;2022-09-27T08:43:36;99699.09;;;10.76;95.16
73651;BME280;61944;52.538;6.108;2022-09-27T08:49:28;99717.09;;;10.75;95.74
73651;BME280;61944;52.538;6.108;2022-09-27T08:51:58;99710.66;;;10.82;94.55
73651;BME280;61944;52.538;6.108;2022-09-27T08:54:27;99698.31;;;10.69;96.04
73651;BME280;61944;52.538;6.108;2022-09-27T08:57:00;99703.19;;;10.57;95.82
73651;BME280;61944;52.538;6.108;2022-09-27T08:59:33;99702.41;;;10.53;95.62
73651;BME280;61944;52.538;6.108;2022-09-27T09:02:00;99708.03;;;10.50;97.11
73651;BME280;61944;52.538;6.108;2022-09-27T09:04:37;99693.56;;;10.66;96.53
73651;BME280;61944;52.538;6.108;2022-09-27T09:09:45;99700.63;;;10.88;94.85
73651;BME280;61944;52.538;6.108;2022-09-27T09:12:33;99704.28;;;10.82;95.35
73651;BME280;61944;52.538;6.108;2022-09-27T09:17:54;99699.81;;;10.88;95.25
73651;BME280;61944;52.538;6.108;2022-09-27T09:20:49;99699.00;;;10.91;94.97
73651;BME280;61944;52.538;6.108;2022-09-27T09:26:17;99700.19;;;10.90;95.66
73651;BME280;61944;52.538;6.108;2022-09-27T09:34:34;99699.06;;;10.80;99.06
73651;BME280;61944;52.538;6.108;2022-09-27T09:37:21;99708.66;;;10.83;99.50
73651;BME280;61944;52.538;6.108;2022-09-27T09:39:59;99709.88;;;10.82;98.68
73651;BME280;61944;52.538;6.108;2022-09-27T09:43:03;99710.28;;;10.76;99.29
73651;BME280;61944;52.538;6.108;2022-09-27T09:45:26;99708.66;;;10.86;98.30
73651;BME280;61944;52.538;6.108;2022-09-27T09:48:03;99706.91;;;11.07;97.32
73651;BME280;61944;52.538;6.108;2022-09-27T09:50:39;99701.28;;;11.14;96.94
73651;BME280;61944;52.538;6.108;2022-09-27T09:53:20;99693.34;;;10.98;97.30
73651;BME280;61944;52.538;6.108;2022-09-27T09:55:53;99702.78;;;11.26;96.59
73651;BME280;61944;52.538;6.108;2022-09-27T09:58:38;99704.06;;;11.14;97.08
73651;BME280;61944;52.538;6.108;2022-09-27T10:01:33;99707.69;;;11.11;97.98
73651;BME280;61944;52.538;6.108;2022-09-27T10:04:00;99704.91;;;11.07;98.02
73651;BME280;61944;52.538;6.108;2022-09-27T10:06:27;99712.22;;;10.90;100.00
73651;BME280;61944;52.538;6.108;2022-09-27T10:08:53;99713.34;;;11.00;99.69
73651;BME280;61944;52.538;6.108;2022-09-27T10:11:32;99703.66;;;11.15;97.74
73651;BME280;61944;52.538;6.108;2022-09-27T10:14:00;99707.28;;;11.12;98.81
73651;BME280;61944;52.538;6.108;2022-09-27T10:16:25;99704.81;;;11.22;99.41
73651;BME280;61944;52.538;6.108;2022-09-27T10:18:56;99714.81;;;11.23;99.50
73651;BME280;61944;52.538;6.108;2022-09-27T10:21:28;99723.34;;;11.01;99.86
73651;BME280;61944;52.538;6.108;2022-09-27T10:24:09;99724.97;;;10.98;100.00
73651;BME280;61944;52.538;6.108;2022-09-27T10:26:37;99732.72;;;10.69;97.78
73651;BME280;61944;52.538;6.108;2022-09-27T10:31:49;99743.16;;;10.58;97.47
73651;BME280;61944;52.538;6.108;2022-09-27T10:36:42;99736.72;;;10.68;97.14
73651;BME280;61944;52.538;6.108;2022-09-27T10:39:20;99735.09;;;10.71;97.31
73651;BME280;61944;52.538;6.108;2022-09-27T10:41:46;99744.72;;;10.70;97.28
73651;BME280;61944;52.538;6.108;2022-09-27T10:46:41;99731.88;;;10.80;96.94
73651;BME280;61944;52.538;6.108;2022-09-27T10:49:17;99731.09;;;10.75;97.23
73651;BME280;61944;52.538;6.108;2022-09-27T10:51:45;99724.28;;;10.80;97.60
73651;BME280;61944;52.538;6.108;2022-09-27T10:54:22;99727.09;;;10.73;97.71
73651;BME280;61944;52.538;6.108;2022-09-27T10:59:41;99724.59;;;10.93;96.74
73651;BME280;61944;52.538;6.108;2022-09-27T11:02:23;99716.25;;;10.86;97.97
73651;BME280;61944;52.538;6.108;2022-09-27T11:05:12;99714.88;;;11.12;96.87
73651;BME280;61944;52.538;6.108;2022-09-27T11:07:52;99711.22;;;11.18;95.52
73651;BME280;61944;52.538;6.108;2022-09-27T11:10:34;99719.69;;;11.11;96.64
73651;BME280;61944;52.538;6.108;2022-09-27T11:13:29;99710.00;;;11.23;96.66
73651;BME280;61944;52.538;6.108;2022-09-27T11:16:22;99707.25;;;11.19;97.03
73651;BME280;61944;52.538;6.108;2022-09-27T11:19:30;99715.72;;;11.05;98.56
73651;BME280;61944;52.538;6.108;2022-09-27T11:22:26;99706.16;;;10.99;99.71
73651;BME280;61944;52.538;6.108;2022-09-27T11:28:02;99701.75;;;11.02;99.96
73651;BME280;61944;52.538;6.108;2022-09-27T11:30:55;99700.13;;;11.04;99.71
73651;BME280;61944;52.538;6.108;2022-09-27T11:44:28;99700.41;;;11.24;99.81
73651;BME280;61944;52.538;6.108;2022-09-27T12:03:53;99700.59;;;11.51;96.22
73651;BME280;61944;52.538;6.108;2022-09-27T12:06:36;99695.53;;;11.32;93.53
73651;BME280;61944;52.538;6.108;2022-09-27T12:09:09;99700.63;;;11.44;95.06
73651;BME280;61944;52.538;6.108;2022-09-27T12:11:40;99700.44;;;11.17;94.85
73651;BME280;61944;52.538;6.108;2022-09-27T12:16:55;99697.13;;;11.33;95.43
73651;BME280;61944;52.538;6.108;2022-09-27T12:19:39;99708.41;;;11.22;95.96
73651;BME280;61944;52.538;6.108;2022-09-27T12:22:11;99700.44;;;11.17;95.34
73651;BME280;61944;52.538;6.108;2022-09-27T12:24:38;99705.34;;;11.02;94.02
73651;BME280;61944;52.538;6.108;2022-09-27T12:27:19;99696.38;;;11.29;95.30
73651;BME280;61944;52.538;6.108;2022-09-27T12:29:47;99700.47;;;11.13;95.92
73651;BME280;61944;52.538;6.108;2022-09-27T12:32:19;99697.91;;;11.37;96.25
73651;BME280;61944;52.538;6.108;2022-09-27T12:35:14;99700.81;;;11.23;92.34
73651;BME280;61944;52.538;6.108;2022-09-27T12:37:46;99697.22;;;11.22;93.48
73651;BME280;61944;52.538;6.108;2022-09-27T12:40:23;99706.03;;;11.21;94.05
73651;BME280;61944;52.538;6.108;2022-09-27T12:42:53;99703.59;;;11.23;92.99
73651;BME280;61944;52.538;6.108;2022-09-27T12:45:42;99705.91;;;11.35;94.43
73651;BME280;61944;52.538;6.108;2022-09-27T12:51:20;99708.34;;;11.29;93.15
73651;BME280;61944;52.538;6.108;2022-09-27T12:54:21;99712.75;;;11.30;93.79
73651;BME280;61944;52.538;6.108;2022-09-27T13:05:20;99712.75;;;11.30;96.12
73651;BME280;61944;52.538;6.108;2022-09-27T13:13:30;99714.94;;;11.05;97.53
73651;BME280;61944;52.538;6.108;2022-09-27T13:15:57;99716.13;;;11.07;98.07
73651;BME280;61944;52.538;6.108;2022-09-27T13:21:01;99720.13;;;11.58;100.00
73651;BME280;61944;52.538;6.108;2022-09-27T13:31:07;99712.69;;;10.74;98.76
73651;BME280;61944;52.538;6.108;2022-09-27T13:42:02;99724.19;;;10.94;96.73
73651;BME280;61944;52.538;6.108;2022-09-27T13:47:31;99723.84;;;10.85;97.30
73651;BME280;61944;52.538;6.108;2022-09-27T13:50:44;99716.19;;;10.93;95.93
73651;BME280;61944;52.538;6.108;2022-09-27T13:53:31;99724.28;;;10.80;97.73
73651;BME280;61944;52.538;6.108;2022-09-27T13:55:58;99723.03;;;10.88;95.67
73651;BME280;61944;52.538;6.108;2022-09-27T13:58:40;99723.09;;;10.70;94.99
73651;BME280;61944;52.538;6.108;2022-09-27T14:01:16;99719.00;;;10.93;94.44
73651;BME280;61944;52.538;6.108;2022-09-27T14:03:44;99715.81;;;10.91;95.96
73651;BME280;61944;52.538;6.108;2022-09-27T14:06:14;99704.69;;;10.76;93.99
73651;BME280;61944;52.538;6.108;2022-09-27T14:08:53;99715.75;;;10.98;94.14
73651;BME280;61944;52.538;6.108;2022-09-27T14:11:35;99707.84;;;10.86;94.25
73651;BME280;61944;52.538;6.108;2022-09-27T14:14:03;99702.97;;;10.97;94.95
73651;BME280;61944;52.538;6.108;2022-09-27T14:16:32;99699.59;;;10.53;95.04
73651;BME280;61944;52.538;6.108;2022-09-27T14:19:00;99711.78;;;10.99;96.14
73651;BME280;61944;52.538;6.108;2022-09-27T14:21:33;99706.22;;;10.88;94.04
73651;BME280;61944;52.538;6.108;2022-09-27T14:24:23;99709.56;;;10.62;94.06
73651;BME280;61944;52.538;6.108;2022-09-27T14:27:03;99709.03;;;10.88;95.05
73651;BME280;61944;52.538;6.108;2022-09-27T14:29:31;99707.09;;;10.74;95.12
73651;BME280;61944;52.538;6.108;2022-09-27T14:32:13;99711.84;;;10.85;96.20
73651;BME280;61944;52.538;6.108;2022-09-27T14:34:39;99711.97;;;10.63;93.32
73651;BME280;61944;52.538;6.108;2022-09-27T14:37:05;99707.06;;;10.82;93.28
73651;BME280;61944;52.538;6.108;2022-09-27T14:40:16;99707.94;;;10.71;95.28
73651;BME280;61944;52.538;6.108;2022-09-27T14:42:43;99707.94;;;10.64;91.53
73651;BME280;61944;52.538;6.108;2022-09-27T14:45:27;99711.94;;;10.67;91.75
73651;BME280;61944;52.538;6.108;2022-09-27T14:47:54;99720.69;;;10.72;91.83
73651;BME280;61944;52.538;6.108;2022-09-27T14:50:28;99724.16;;;10.98;91.81
73651;BME280;61944;52.538;6.108;2022-09-27T14:52:55;99718.09;;;11.10;89.36
73651;BME280;61944;52.538;6.108;2022-09-27T14:55:25;99720.13;;;11.06;90.42
73651;BME280;61944;52.538;6.108;2022-09-27T14:57:55;99720.53;;;11.05;91.04
73651;BME280;61944;52.538;6.108;2022-09-27T15:00:25;99723.09;;;10.70;89.24
73651;BME280;61944;52.538;6.108;2022-09-27T15:02:54;99722.50;;;11.11;91.40
73651;BME280;61944;52.538;6.108;2022-09-27T15:05:26;99725.69;;;11.13;90.00
73651;BME280;61944;52.538;6.108;2022-09-27T15:07:54;99721.28;;;11.12;89.81
73651;BME280;61944;52.538;6.108;2022-09-27T15:10:24;99709.38;;;10.97;87.66
73651;BME280;61944;52.538;6.108;2022-09-27T15:12:54;99709.78;;;10.96;86.23
73651;BME280;61944;52.538;6.108;2022-09-27T15:15:24;99704.81;;;10.51;86.34
73651;BME280;61944;52.538;6.108;2022-09-27T15:17:51;99706.97;;;10.96;88.55
73651;BME280;61944;52.538;6.108;2022-09-27T15:20:22;99703.06;;;10.79;88.10
73651;BME280;61944;52.538;6.108;2022-09-27T15:22:49;99699.75;;;11.02;88.69
73651;BME280;61944;52.538;6.108;2022-09-27T15:25:35;99702.06;;;11.14;88.59
73651;BME280;61944;52.538;6.108;2022-09-27T15:28:13;99695.66;;;11.17;88.33
73651;BME280;61944;52.538;6.108;2022-09-27T15:30:52;99693.50;;;10.76;89.83
73651;BME280;61944;52.538;6.108;2022-09-27T15:33:21;99683.75;;;11.03;88.80
73651;BME280;61944;52.538;6.108;2022-09-27T15:35:50;99686.81;;;11.19;89.01
73651;BME280;61944;52.538;6.108;2022-09-27T15:39:05;99682.41;;;11.22;88.40
73651;BME280;61944;52.538;6.108;2022-09-27T15:41:19;99683.56;;;11.28;87.37
73651;BME280;61944;52.538;6.108;2022-09-27T15:43:46;99692.56;;;10.97;88.03